createdAt,value
2023-04-28T00:01:48.212Z,3.03
2023-04-28T00:05:33.665Z,3.05
2023-04-28T00:09:20.642Z,3.06
2023-04-28T00:12:49.950Z,3.03
2023-04-28T00:16:37.023Z,2.97
2023-04-28T00:20:04.351Z,2.94
2023-04-28T00:23:51.363Z,2.90
2023-04-28T00:27:19.169Z,2.83
2023-04-28T00:31:21.816Z,2.73
2023-04-28T00:34:37.578Z,2.65
2023-04-28T00:38:25.573Z,2.61
2023-04-28T00:41:49.930Z,2.51
2023-04-28T00:45:25.678Z,2.40
2023-04-28T00:49:15.253Z,2.28
2023-04-28T00:52:59.531Z,2.18
2023-04-28T00:56:27.862Z,2.11
2023-04-28T01:00:08.197Z,2.07
2023-04-28T01:03:42.529Z,1.98
2023-04-28T01:07:48.044Z,1.86
2023-04-28T01:11:05.313Z,1.76
2023-04-28T01:14:41.991Z,1.72
2023-04-28T01:18:28.229Z,1.66
2023-04-28T01:22:04.659Z,1.49
2023-04-28T01:25:42.385Z,1.38
2023-04-28T01:29:17.907Z,1.35
2023-04-28T01:33:02.655Z,1.35
2023-04-28T01:36:39.470Z,1.35
2023-04-28T01:40:41.803Z,1.32
2023-04-28T01:44:02.837Z,1.25
2023-04-28T01:47:40.347Z,1.19
2023-04-28T01:51:18.118Z,1.16
2023-04-28T01:54:56.987Z,1.14
2023-04-28T01:58:33.527Z,1.10
2023-04-28T02:02:28.035Z,1.02
2023-04-28T02:06:06.126Z,0.97
2023-04-28T02:09:24.533Z,0.96
2023-04-28T02:13:26.099Z,0.94
2023-04-28T02:16:48.269Z,0.90
2023-04-28T02:20:51.605Z,0.82
2023-04-28T02:24:20.187Z,0.77
2023-04-28T02:27:41.490Z,0.75
2023-04-28T02:31:21.558Z,0.74
2023-04-28T02:35:13.509Z,0.70
2023-04-28T02:38:33.476Z,0.63
2023-04-28T02:42:12.012Z,0.54
2023-04-28T02:46:15.550Z,0.50
2023-04-28T02:49:26.367Z,0.47
2023-04-28T02:53:01.953Z,0.41
2023-04-28T02:56:46.032Z,0.32
2023-04-28T03:00:38.870Z,0.25
2023-04-28T03:04:08.797Z,0.22
2023-04-28T03:07:46.241Z,0.20
2023-04-28T03:11:33.896Z,0.18
2023-04-28T03:15:05.993Z,0.13
2023-04-28T03:18:47.435Z,0.08
2023-04-28T03:22:33.755Z,0.07
2023-04-28T03:25:54.738Z,0.12
2023-04-28T03:29:48.170Z,0.17
2023-04-28T03:33:10.663Z,0.17
2023-04-28T03:36:48.090Z,0.16
2023-04-28T03:40:25.903Z,0.19
2023-04-28T03:44:02.187Z,0.28
2023-04-28T03:47:50.181Z,0.27
2023-04-28T03:51:47.293Z,0.30
2023-04-28T03:55:08.109Z,0.34
2023-04-28T03:58:44.246Z,0.33
2023-04-28T04:02:21.045Z,0.38
2023-04-28T04:05:57.141Z,0.47
2023-04-28T04:10:01.411Z,0.53
2023-04-28T04:13:35.982Z,0.62
2023-04-28T04:17:14.541Z,0.78
2023-04-28T04:20:55.166Z,1.03
2023-04-28T04:24:13.330Z,1.26
2023-04-28T04:27:51.648Z,1.46
2023-04-28T04:31:28.835Z,1.58
2023-04-28T04:35:14.742Z,1.69
2023-04-28T04:38:45.084Z,1.83
2023-04-28T04:42:24.792Z,2.03
2023-04-28T04:46:00.839Z,2.28
2023-04-28T04:49:35.169Z,2.55
2023-04-28T04:53:35.317Z,2.72
2023-04-28T04:57:01.936Z,2.98
2023-04-28T05:00:45.716Z,3.23
2023-04-28T05:04:30.657Z,3.36
2023-04-28T05:07:55.347Z,3.49
2023-04-28T05:11:28.914Z,3.72
2023-04-28T05:15:09.135Z,3.94
2023-04-28T05:18:48.409Z,4.19
2023-04-28T05:22:42.673Z,4.38
2023-04-28T05:26:00.684Z,4.72
2023-04-28T05:29:52.122Z,5.29
2023-04-28T05:33:16.540Z,5.59
2023-04-28T05:37:08.642Z,5.55
2023-04-28T05:40:50.963Z,5.58
2023-04-28T05:44:25.135Z,5.57
2023-04-28T05:48:13.041Z,5.59
2023-04-28T05:51:24.773Z,5.64
2023-04-28T05:55:02.383Z,5.70
2023-04-28T05:58:50.732Z,5.80
2023-04-28T06:02:16.960Z,5.88
2023-04-28T06:06:03.084Z,5.94
2023-04-28T06:09:32.362Z,6.01
2023-04-28T06:13:36.736Z,6.12
2023-04-28T06:17:12.235Z,7.36
2023-04-28T06:20:52.162Z,9.62
2023-04-28T06:24:21.471Z,11.54
2023-04-28T06:27:38.771Z,13.01
2023-04-28T06:31:25.121Z,14.20
2023-04-28T06:35:18.264Z,15.40
2023-04-28T06:38:43.061Z,16.46
2023-04-28T06:42:33.816Z,17.16
2023-04-28T06:46:12.114Z,17.50
2023-04-28T06:49:40.251Z,17.93
2023-04-28T06:53:10.768Z,18.27
2023-04-28T06:56:45.626Z,18.50
2023-04-28T07:00:28.743Z,18.76
2023-04-28T07:04:13.832Z,19.16
2023-04-28T07:08:07.528Z,19.53
2023-04-28T07:11:44.953Z,19.78
2023-04-28T07:15:23.316Z,20.13
2023-04-28T07:18:44.551Z,20.39
2023-04-28T07:22:22.280Z,20.29
2023-04-28T07:25:59.978Z,20.31
2023-04-28T07:29:37.716Z,20.28
2023-04-28T07:33:15.532Z,20.22
2023-04-28T07:36:54.178Z,20.33
2023-04-28T07:40:38.747Z,20.41
2023-04-28T07:44:08.338Z,20.38
2023-04-28T07:48:01.268Z,20.40
2023-04-28T07:51:28.909Z,20.42
2023-04-28T07:55:14.742Z,20.06
2023-04-28T07:58:52.357Z,19.49
2023-04-28T08:02:57.210Z,19.01
2023-04-28T08:06:07.406Z,18.41
2023-04-28T08:09:47.575Z,17.71
2023-04-28T08:13:22.460Z,17.40
2023-04-28T08:17:01.660Z,17.38
2023-04-28T08:20:52.669Z,17.01
2023-04-28T08:24:33.779Z,16.42
2023-04-28T08:28:11.784Z,16.02
2023-04-28T08:31:30.861Z,15.68
2023-04-28T08:35:19.456Z,15.31
2023-04-28T08:39:08.003Z,15.05
2023-04-28T08:42:23.903Z,14.98
2023-04-28T08:46:01.999Z,15.20
2023-04-28T08:50:23.556Z,15.50
2023-04-28T08:57:46.406Z,16.08
2023-04-28T09:01:21.607Z,15.92
2023-04-28T09:05:12.306Z,15.76
2023-04-28T09:08:45.211Z,15.70
2023-04-28T09:12:15.692Z,15.70
2023-04-28T09:15:51.115Z,15.72
2023-04-28T09:19:45.744Z,15.68
2023-04-28T09:23:24.027Z,15.73
2023-04-28T09:26:54.111Z,15.82
2023-04-28T09:30:42.555Z,15.88
2023-04-28T09:34:07.302Z,15.93
2023-04-28T09:37:44.771Z,16.02
2023-04-28T09:41:26.422Z,16.15
2023-04-28T09:44:57.938Z,16.02
2023-04-28T09:48:54.086Z,15.87
2023-04-28T09:52:38.635Z,15.73
2023-04-28T09:56:03.624Z,15.62
2023-04-28T09:59:35.783Z,15.63
2023-04-28T10:03:47.007Z,15.67
2023-04-28T10:07:09.080Z,15.49
2023-04-28T10:10:36.751Z,15.47
2023-04-28T10:14:12.327Z,15.40
2023-04-28T10:17:56.583Z,15.33
2023-04-28T10:21:48.055Z,15.21
2023-04-28T10:25:38.155Z,15.03
2023-04-28T10:28:56.891Z,14.91
2023-04-28T10:33:23.547Z,14.81
2023-04-28T10:36:26.999Z,14.80
2023-04-28T10:40:34.309Z,14.90
2023-04-28T10:43:39.929Z,14.86
2023-04-28T10:47:23.997Z,14.87
2023-04-28T10:51:26.790Z,14.97
2023-04-28T10:55:31.554Z,15.07
2023-04-28T10:58:37.551Z,15.28
2023-04-28T11:02:32.742Z,15.48
2023-04-28T11:05:40.614Z,15.56
2023-04-28T11:09:49.944Z,15.70
2023-04-28T11:13:27.774Z,15.77
2023-04-28T11:16:52.953Z,15.81
2023-04-28T11:20:25.665Z,15.76
2023-04-28T11:23:58.708Z,15.87
2023-04-28T11:27:30.714Z,15.90
2023-04-28T11:31:19.420Z,15.79
2023-04-28T11:34:43.615Z,15.76
2023-04-28T11:38:48.478Z,15.71
2023-04-28T11:42:13.580Z,15.68
2023-04-28T11:45:49.238Z,15.68
2023-04-28T11:49:12.653Z,15.72
2023-04-28T11:53:06.995Z,15.83
2023-04-28T11:56:26.657Z,15.79
2023-04-28T12:00:21.882Z,15.61
2023-04-28T12:03:50.106Z,15.48
2023-04-28T12:07:53.833Z,15.31
2023-04-28T12:11:13.135Z,15.24
2023-04-28T12:14:57.332Z,15.25
2023-04-28T12:18:59.853Z,15.42
2023-04-28T12:22:18.048Z,15.52
2023-04-28T12:26:25.875Z,15.43
2023-04-28T12:29:46.886Z,15.35
2023-04-28T12:33:38.419Z,15.36
2023-04-28T12:37:16.573Z,15.39
2023-04-28T12:40:33.700Z,15.26
2023-04-28T12:44:11.491Z,15.23
2023-04-28T12:48:07.704Z,15.34
2023-04-28T12:51:44.560Z,15.47
2023-04-28T12:55:22.531Z,15.64
2023-04-28T12:59:07.187Z,15.97
2023-04-28T13:02:19.928Z,16.17
2023-04-28T13:06:18.021Z,16.07
2023-04-28T13:09:52.243Z,16.01
2023-04-28T13:13:23.019Z,15.69
2023-04-28T13:17:09.486Z,15.39
2023-04-28T13:20:45.661Z,15.16
2023-04-28T13:24:05.541Z,15.09
2023-04-28T13:27:50.709Z,15.08
2023-04-28T13:31:31.725Z,15.15
2023-04-28T13:35:06.609Z,15.36
2023-04-28T13:38:46.196Z,15.54
2023-04-28T13:42:21.621Z,15.54
2023-04-28T13:45:59.961Z,15.64
2023-04-28T13:49:55.103Z,15.85
2023-04-28T13:53:32.720Z,15.99
2023-04-28T13:56:49.884Z,15.93
2023-04-28T14:00:50.388Z,15.89
2023-04-28T14:04:23.283Z,15.93
2023-04-28T14:08:05.611Z,15.94
2023-04-28T14:11:27.323Z,15.92
2023-04-28T14:15:11.519Z,15.92
2023-04-28T14:19:00.947Z,15.92
2023-04-28T14:22:34.408Z,15.87
2023-04-28T14:26:11.734Z,15.60
2023-04-28T14:29:49.381Z,15.40
2023-04-28T14:33:30.827Z,15.24
2023-04-28T14:37:19.950Z,15.27
2023-04-28T14:40:50.508Z,15.34
2023-04-28T14:44:18.478Z,15.50
2023-04-28T14:48:10.391Z,15.56
2023-04-28T14:51:39.107Z,15.56
2023-04-28T14:55:22.293Z,15.56
2023-04-28T14:59:05.055Z,15.50
2023-04-28T15:02:50.204Z,15.46
2023-04-28T15:06:32.171Z,15.41
2023-04-28T15:10:38.649Z,15.39
2023-04-28T15:14:46.645Z,15.34
2023-04-28T15:18:24.559Z,15.29
2023-04-28T15:22:02.717Z,15.22
2023-04-28T15:25:37.162Z,15.22
2023-04-28T15:29:31.943Z,15.32
2023-04-28T15:32:59.705Z,15.41
2023-04-28T15:36:48.094Z,15.38
2023-04-28T15:40:32.084Z,15.35
2023-04-28T15:43:53.048Z,15.27
2023-04-28T15:47:31.190Z,15.20
2023-04-28T15:51:13.992Z,15.16
2023-04-28T15:55:00.950Z,15.13
2023-04-28T15:58:51.535Z,15.10
2023-04-28T16:02:17.766Z,15.05
2023-04-28T16:05:49.823Z,14.98
2023-04-28T16:09:34.578Z,14.88
2023-04-28T16:13:15.936Z,14.76
2023-04-28T16:17:10.732Z,14.63
2023-04-28T16:20:28.041Z,14.53
2023-04-28T16:24:21.870Z,14.47
2023-04-28T16:27:41.864Z,14.40
2023-04-28T16:31:26.807Z,14.32
2023-04-28T16:35:21.682Z,14.27
2023-04-28T16:38:57.984Z,14.23
2023-04-28T16:42:21.024Z,14.18
2023-04-28T16:46:23.846Z,14.13
2023-04-28T16:49:43.567Z,14.06
2023-04-28T16:53:49.190Z,13.98
2023-04-28T16:57:02.538Z,13.89
2023-04-28T17:00:54.139Z,13.77
2023-04-28T17:04:33.336Z,13.66
2023-04-28T17:08:10.994Z,13.55
2023-04-28T17:11:39.863Z,13.43
2023-04-28T17:15:26.591Z,13.29
2023-04-28T17:18:45.394Z,13.14
2023-04-28T17:22:20.924Z,12.98
2023-04-28T17:26:27.203Z,12.82
2023-04-28T17:29:58.590Z,12.69
2023-04-28T17:33:19.576Z,12.53
2023-04-28T17:37:06.073Z,12.35
2023-04-28T17:40:48.751Z,12.12
2023-04-28T17:44:35.260Z,12.01
2023-04-28T17:48:15.177Z,11.88
2023-04-28T17:51:52.068Z,11.70
2023-04-28T17:55:29.601Z,11.51
2023-04-28T17:59:07.645Z,11.34
2023-04-28T18:02:43.267Z,11.17
2023-04-28T18:06:24.963Z,10.99
2023-04-28T18:09:57.286Z,10.77
2023-04-28T18:13:21.773Z,10.60
2023-04-28T18:16:57.240Z,10.41
2023-04-28T18:20:59.154Z,10.20
2023-04-28T18:24:36.837Z,10.05
2023-04-28T18:28:15.773Z,9.94
2023-04-28T18:31:40.108Z,9.85
2023-04-28T18:35:31.211Z,9.73
2023-04-28T18:38:53.917Z,9.61
2023-04-28T18:42:53.241Z,9.48
2023-04-28T18:46:20.863Z,9.38
2023-04-28T18:49:47.560Z,9.25
2023-04-28T18:53:24.746Z,9.12
2023-04-28T18:57:06.989Z,9.01
2023-04-28T19:00:47.530Z,8.91
2023-04-28T19:04:41.511Z,8.82
2023-04-28T19:08:00.236Z,8.76
2023-04-28T19:11:37.830Z,8.70
2023-04-28T19:15:26.956Z,8.64
2023-04-28T19:19:03.271Z,8.57
2023-04-28T19:22:40.536Z,8.50
2023-04-28T19:26:02.500Z,8.44
2023-04-28T19:29:48.711Z,8.36
2023-04-28T19:33:32.882Z,8.27
2023-04-28T19:37:01.743Z,8.20
2023-04-28T19:40:33.850Z,8.13
2023-04-28T19:44:19.409Z,8.04
2023-04-28T19:47:47.047Z,7.98
2023-04-28T19:51:41.465Z,7.92
2023-04-28T19:55:20.591Z,7.85
2023-04-28T19:58:58.048Z,7.79
2023-04-28T20:02:20.462Z,7.72
2023-04-28T20:05:56.807Z,7.65
2023-04-28T20:09:35.823Z,7.58
2023-04-28T20:13:29.730Z,7.52
2023-04-28T20:16:58.838Z,7.48
2023-04-28T20:20:24.704Z,7.43
2023-04-28T20:24:09.624Z,7.36
2023-04-28T20:27:57.166Z,7.27
2023-04-28T20:31:42.638Z,7.25
2023-04-28T20:35:17.583Z,7.22
2023-04-28T20:38:50.430Z,7.17
2023-04-28T20:42:18.523Z,7.12
2023-04-28T20:46:20.405Z,7.08
2023-04-28T20:49:58.675Z,7.05
2023-04-28T20:53:34.417Z,7.02
2023-04-28T20:56:57.379Z,6.99
2023-04-28T21:00:38.232Z,6.93
2023-04-28T21:04:12.760Z,6.85
2023-04-28T21:07:49.470Z,6.78
2023-04-28T21:11:37.141Z,6.71
2023-04-28T21:15:29.745Z,6.65
2023-04-28T21:18:42.655Z,6.59
2023-04-28T21:22:20.530Z,6.51
2023-04-28T21:26:15.117Z,6.45
2023-04-28T21:29:36.041Z,6.40
2023-04-28T21:33:14.500Z,6.34
2023-04-28T21:37:07.986Z,6.31
2023-04-28T21:40:39.305Z,6.27
2023-04-28T21:44:16.525Z,6.24
2023-04-28T21:48:01.170Z,6.19
2023-04-28T21:51:41.592Z,6.16
2023-04-28T21:55:00.013Z,6.14
2023-04-28T21:58:47.545Z,6.14
2023-04-28T22:02:33.252Z,6.16
2023-04-28T22:06:00.887Z,6.16
2023-04-28T22:09:38.811Z,6.15
2023-04-28T22:13:24.200Z,6.10
2023-04-28T22:17:12.785Z,6.05
2023-04-28T22:20:23.815Z,6.01
2023-04-28T22:24:18.265Z,5.94
2023-04-28T22:27:40.669Z,5.85
2023-04-28T22:31:16.933Z,5.74
2023-04-28T22:34:52.818Z,5.67
2023-04-28T22:38:39.505Z,5.63
2023-04-28T22:42:15.375Z,5.61
2023-04-28T22:46:09.942Z,5.58
2023-04-28T22:49:32.207Z,5.53
2023-04-28T22:53:25.383Z,5.46
2023-04-28T22:57:03.323Z,5.39
2023-04-28T23:00:42.227Z,5.35
2023-04-28T23:04:17.161Z,5.29
2023-04-28T23:07:37.486Z,5.22
2023-04-28T23:11:32.551Z,5.14
2023-04-28T23:15:00.992Z,5.09
2023-04-28T23:18:35.933Z,5.07
2023-04-28T23:22:20.502Z,5.09
2023-04-28T23:26:15.599Z,5.11
2023-04-28T23:29:36.915Z,5.10
2023-04-28T23:33:12.063Z,5.05
2023-04-28T23:36:58.334Z,5.00
2023-04-28T23:41:01.261Z,4.96
2023-04-28T23:44:29.145Z,4.92
2023-04-28T23:48:06.777Z,4.88
2023-04-28T23:51:42.488Z,4.85
2023-04-28T23:55:08.018Z,4.86
2023-04-28T23:59:09.216Z,4.89
